Aérodrome :
LOGIN :

S'inscrire | Disclaimer

   EN    FR    IT 

 










Légende :    VFR   VFR Marginal   IFR   IFR Intensif   IFR Très Intensif
Visi : 
Plafond : 
>= 8 km
>= 3000ft
5 à 8 km
1000 à 3000 ft
1500m à 5 km
500 à 1000 ft
800 à 1500m
200 à 500 ft
< 800m
< 200 ft
Symboles :   Orages  Brouillard  Fortes neiges  Fortes précipitations  Vent > 20 kt
SIGMETs :   Divers  Orages  Givrage  Turbulence  Onde Orograph.  Cendres Volcan.







- Altitude de l'aérodrome : 257 ft
- Code IATA : MAN
- Voir les cartes d'approche


EGCC - Manchester

DERNIER METAR :
  • 231720Z 28010KT 240V300 9000 BKN010 12/10 Q1030 NOSIG

METARs EXPIRÉS :
  • 231650Z 28012KT 8000 BKN011 12/10 Q1030 NOSIG
  • 231620Z 28010KT 8000 BKN011 12/10 Q1030
  • 231550Z 28009KT 240V320 8000 BKN011 12/10 Q1030
  • 231520Z 28015KT 8000 -DZ BKN012 12/10 Q1030 NOSIG
  • 231450Z 28015KT 9000 BKN013 12/10 Q1030

TAF TAF EGCC
Valide du 23 à 18h jusqu'au 25 à 00h UTC


231702Z 2318/2424 29012KT 9999 SCT025
TEMPO 2318/2424 BKN012
PROB30
TEMPO 2318/2403 30015G25KT 4000 -DZ BKN009
ATIS : +44 161 499 2324
Pas de NOTAMs connus pour ce terrain.
2 SIGMETs publiés pour la FIR London (EGTT) :
 
Turbulence forte
EGTT SIGMET 08 VALID 231400/231800 EGRR
EGTT LONDON FIR SEV TURB FCST WI N5400 W00200 - N5500 W00300 - N5500 E00500 - N5400 E00409 - N5400 W00200 SFC/FL060 STNR WKN=
Onde orographique forte
EGTT SIGMET 07 VALID 231400/231800 EGRR
EGTT LONDON FIR SEV MTW FCST WI N5500 E00100 - N5400 E00045 - N5400 W00245 - N5500 W00530 - N5500 E00100 FL030/220 STNR NC=



MET'MAP, la Météo Aéronautique d'un coup d'oeil ! - Copyright ORBIFLY Décembre 2007 - Disclaimer

ORBIFLY MET'MAP TEAM :

Programmation & Développement : Alexandra Zaïnal
Conception & Développement : Baudouin d'Aumeries
Co-Programmation & Développement : Marc-Olivier Méhu
Soutien technique & logistique : Manuel Goepfert

Contact : metmap@orbifly.com




SOURCES & CREDITS :

   NOAA